Time;durP1;ratioP1;P1;durP2;ratioP2;P2;SDS_P1;SDS_P2;PMS_P1;PMS_P2;Temp;Humidity;BMP_temperature;BMP_pressure;BME280_temperature;BME280_humidity;BME280_pressure;Samples;Min_cycle;Max_cycle;Signal;HPM_P1;HPM_P2
2023/06/30 00:01:51;;;;;;;8.80;7.53;;;;;;;;;;10430380;28;20104;-82
2023/06/30 00:06:51;;;;;;;12.20;7.97;;;;;;;;;;10429861;28;20016;-82
2023/06/30 00:11:53;;;;;;;9.55;7.40;;;;;;;;;;10448105;28;20055;-81
2023/06/30 00:16:56;;;;;;;11.32;8.15;;;;;;;;;;10428415;28;20656;-81
2023/06/30 00:21:56;;;;;;;9.40;8.00;;;;;;;;;;10469993;28;20480;-80
2023/06/30 00:27:00;;;;;;;11.15;8.00;;;;;;;;;;10461992;28;20036;-78
2023/06/30 00:32:01;;;;;;;9.15;7.65;;;;;;;;;;10468816;28;20423;-78
2023/06/30 00:37:02;;;;;;;9.05;7.70;;;;;;;;;;10429302;28;20025;-80
2023/06/30 00:42:02;;;;;;;11.87;7.17;;;;;;;;;;10449904;28;20047;-74
2023/06/30 00:47:03;;;;;;;11.57;7.57;;;;;;;;;;10468600;28;20263;-80
2023/06/30 00:52:03;;;;;;;9.40;7.13;;;;;;;;;;10468554;28;20383;-75
2023/06/30 00:57:05;;;;;;;11.80;8.63;;;;;;;;;;10487420;28;20317;-81
2023/06/30 01:02:09;;;;;;;9.07;7.63;;;;;;;;;;10486610;28;20028;-74
2023/06/30 01:07:17;;;;;;;8.88;7.97;;;;;;;;;;10472539;28;20020;-78
2023/06/30 01:12:17;;;;;;;10.33;8.07;;;;;;;;;;10472620;28;20047;-83
2023/06/30 01:17:18;;;;;;;10.80;9.15;;;;;;;;;;10487955;28;20055;-80
2023/06/30 01:22:24;;;;;;;14.00;8.43;;;;;;;;;;10470506;28;20052;-79
2023/06/30 01:27:24;;;;;;;9.57;8.05;;;;;;;;;;10469280;28;20056;-80
2023/06/30 01:32:25;;;;;;;17.97;10.67;;;;;;;;;;10467251;28;20116;-77
2023/06/30 01:37:25;;;;;;;13.55;8.80;;;;;;;;;;10485464;28;20258;-73
2023/06/30 01:42:27;;;;;;;9.60;8.20;;;;;;;;;;10466147;28;20020;-80
2023/06/30 01:47:28;;;;;;;10.75;8.32;;;;;;;;;;10469398;28;20032;-78
2023/06/30 01:52:28;;;;;;;11.63;8.48;;;;;;;;;;10466292;28;20028;-78
2023/06/30 01:57:29;;;;;;;13.27;7.55;;;;;;;;;;10464512;28;20028;-77
2023/06/30 02:02:29;;;;;;;14.85;8.23;;;;;;;;;;10506020;28;20422;-77
2023/06/30 02:07:29;;;;;;;8.30;7.22;;;;;;;;;;10482355;28;20071;-84
2023/06/30 02:12:29;;;;;;;11.00;7.90;;;;;;;;;;10465697;28;20107;-80
2023/06/30 02:17:33;;;;;;;23.48;8.45;;;;;;;;;;10497964;28;20098;-80
2023/06/30 02:22:33;;;;;;;12.10;7.93;;;;;;;;;;10465482;28;20043;-75
2023/06/30 02:27:35;;;;;;;10.43;8.30;;;;;;;;;;10466949;28;20016;-82
2023/06/30 02:32:38;;;;;;;12.30;8.80;;;;;;;;;;10466535;28;20036;-82
2023/06/30 02:37:40;;;;;;;11.48;8.60;;;;;;;;;;10465207;28;20033;-75
2023/06/30 02:42:40;;;;;;;11.27;8.70;;;;;;;;;;10453851;28;20083;-78
2023/06/30 02:47:40;;;;;;;13.57;8.90;;;;;;;;;;10456903;28;20407;-74
2023/06/30 02:52:41;;;;;;;11.52;8.60;;;;;;;;;;10462665;28;20773;-81
2023/06/30 02:57:41;;;;;;;17.73;9.87;;;;;;;;;;10450705;28;20023;-82
2023/06/30 03:02:41;;;;;;;14.40;7.53;;;;;;;;;;10461278;28;20262;-83
2023/06/30 03:07:42;;;;;;;10.73;8.63;;;;;;;;;;10462242;28;20039;-81
2023/06/30 03:12:42;;;;;;;14.02;8.13;;;;;;;;;;10461687;28;20009;-76
2023/06/30 03:17:42;;;;;;;12.48;8.32;;;;;;;;;;10446753;28;20086;-75
2023/06/30 03:22:43;;;;;;;12.73;8.35;;;;;;;;;;10440271;28;20021;-77
2023/06/30 03:27:43;;;;;;;9.27;8.03;;;;;;;;;;10446683;28;20058;-78
2023/06/30 03:32:43;;;;;;;11.45;7.35;;;;;;;;;;10469674;28;20012;-75
2023/06/30 03:37:43;;;;;;;13.18;7.93;;;;;;;;;;10458160;28;20020;-85
2023/06/30 03:42:44;;;;;;;9.93;7.10;;;;;;;;;;10476734;28;20450;-77
2023/06/30 03:47:46;;;;;;;9.23;6.78;;;;;;;;;;10479942;28;20096;-77
2023/06/30 03:52:46;;;;;;;8.55;7.07;;;;;;;;;;10437061;28;20466;-81
2023/06/30 03:57:46;;;;;;;8.10;6.63;;;;;;;;;;10451287;28;20021;-75
2023/06/30 04:02:47;;;;;;;8.70;6.97;;;;;;;;;;10448823;28;20016;-82
2023/06/30 04:07:47;;;;;;;15.02;7.45;;;;;;;;;;10449648;28;20037;-76
2023/06/30 04:12:47;;;;;;;12.95;7.78;;;;;;;;;;10454970;28;20025;-75
2023/06/30 04:17:47;;;;;;;12.35;8.20;;;;;;;;;;10487609;28;20048;-79
2023/06/30 04:22:48;;;;;;;19.33;10.45;;;;;;;;;;10446963;28;20039;-83
2023/06/30 04:27:48;;;;;;;11.05;7.53;;;;;;;;;;10438574;28;20029;-75
2023/06/30 04:32:48;;;;;;;11.35;6.82;;;;;;;;;;10469090;28;20028;-78
2023/06/30 04:37:48;;;;;;;12.57;8.00;;;;;;;;;;10469675;28;20024;-80
2023/06/30 04:42:49;;;;;;;8.52;7.18;;;;;;;;;;10412551;28;20515;-75
2023/06/30 04:47:49;;;;;;;31.77;6.97;;;;;;;;;;10442147;28;20083;-78
2023/06/30 04:52:49;;;;;;;8.32;6.00;;;;;;;;;;10420395;28;20036;-76
2023/06/30 04:57:49;;;;;;;8.80;6.20;;;;;;;;;;10420766;28;20025;-79
2023/06/30 05:02:50;;;;;;;7.97;6.03;;;;;;;;;;10437561;28;20082;-82
2023/06/30 05:07:50;;;;;;;7.95;5.80;;;;;;;;;;10438296;28;20021;-77
2023/06/30 05:12:50;;;;;;;12.82;7.03;;;;;;;;;;10423659;28;20484;-76
2023/06/30 05:17:50;;;;;;;8.23;6.07;;;;;;;;;;10466918;28;20055;-74
2023/06/30 05:22:51;;;;;;;9.98;6.43;;;;;;;;;;10467466;28;20139;-74
2023/06/30 05:27:51;;;;;;;11.73;5.15;;;;;;;;;;10467042;28;20401;-76
2023/06/30 05:32:51;;;;;;;7.50;5.32;;;;;;;;;;10554450;22;20108;-74
2023/06/30 05:37:51;;;;;;;8.63;6.30;;;;;;;;;;10583951;28;20314;-73
2023/06/30 05:42:52;;;;;;;8.45;5.38;;;;;;;;;;10582481;28;20073;-73
2023/06/30 05:47:52;;;;;;;10.30;6.17;;;;;;;;;;10582877;28;20040;-72
2023/06/30 05:52:53;;;;;;;7.82;5.57;;;;;;;;;;10564378;28;20011;-72
2023/06/30 05:57:53;;;;;;;16.48;7.32;;;;;;;;;;10583124;28;20039;-72
2023/06/30 06:02:54;;;;;;;8.63;6.47;;;;;;;;;;10583815;28;20194;-74
2023/06/30 06:07:54;;;;;;;8.85;6.88;;;;;;;;;;10583819;28;20068;-74
2023/06/30 06:12:55;;;;;;;9.75;5.78;;;;;;;;;;10582672;28;20145;-74
2023/06/30 06:17:55;;;;;;;14.18;5.85;;;;;;;;;;10582855;28;20264;-73
2023/06/30 06:22:55;;;;;;;11.07;6.70;;;;;;;;;;10582361;28;20051;-72
2023/06/30 06:27:56;;;;;;;12.55;7.00;;;;;;;;;;10582146;28;20031;-73
2023/06/30 06:32:56;;;;;;;13.60;6.27;;;;;;;;;;10580869;27;20039;-73
2023/06/30 06:37:56;;;;;;;7.55;5.85;;;;;;;;;;10581518;28;20273;-73
2023/06/30 06:42:56;;;;;;;9.02;5.85;;;;;;;;;;10602068;27;20050;-73
2023/06/30 06:48:15;;;;;;;13.32;5.55;;;;;;;;;;10605583;27;20108;-74
2023/06/30 06:53:18;;;;;;;17.77;7.10;;;;;;;;;;10539278;28;20219;-73
2023/06/30 06:58:19;;;;;;;14.80;5.63;;;;;;;;;;10602256;27;20317;-72
2023/06/30 07:03:20;;;;;;;9.60;4.85;;;;;;;;;;10622613;27;20073;-73
2023/06/30 07:08:20;;;;;;;9.38;5.35;;;;;;;;;;10605055;27;20023;-72
2023/06/30 07:13:21;;;;;;;6.47;4.50;;;;;;;;;;10623346;27;20249;-73
2023/06/30 07:18:21;;;;;;;8.93;3.70;;;;;;;;;;10622761;28;20026;-73
2023/06/30 07:23:21;;;;;;;6.97;4.32;;;;;;;;;;10623090;28;20027;-73
2023/06/30 07:28:22;;;;;;;5.60;4.40;;;;;;;;;;10623338;27;20031;-73
2023/06/30 07:33:22;;;;;;;9.38;4.05;;;;;;;;;;10622856;28;20039;-73
2023/06/30 07:38:22;;;;;;;7.13;4.63;;;;;;;;;;10623274;28;20011;-73
2023/06/30 07:43:23;;;;;;;13.43;5.85;;;;;;;;;;10622246;28;20256;-73
2023/06/30 07:48:23;;;;;;;17.37;5.83;;;;;;;;;;10622869;28;20041;-72
2023/06/30 07:53:23;;;;;;;8.93;4.90;;;;;;;;;;10603414;28;20205;-73
2023/06/30 07:58:23;;;;;;;7.32;5.07;;;;;;;;;;10622240;28;20064;-73
2023/06/30 08:03:24;;;;;;;11.00;5.33;;;;;;;;;;10622674;28;20045;-73
2023/06/30 08:08:24;;;;;;;6.22;4.00;;;;;;;;;;10603130;28;20182;-73
2023/06/30 08:13:25;;;;;;;7.03;4.43;;;;;;;;;;10625686;27;20027;-73
2023/06/30 08:18:26;;;;;;;3.85;2.70;;;;;;;;;;10629736;27;20039;-73
2023/06/30 08:23:27;;;;;;;3.42;2.60;;;;;;;;;;10629484;27;20080;-73
2023/06/30 08:28:27;;;;;;;4.72;2.78;;;;;;;;;;10629320;27;20076;-73
2023/06/30 08:33:28;;;;;;;3.95;2.17;;;;;;;;;;10610932;27;20073;-73
2023/06/30 08:38:28;;;;;;;6.18;1.88;;;;;;;;;;10586260;28;20305;-73
2023/06/30 08:43:29;;;;;;;5.90;2.45;;;;;;;;;;10585741;28;20039;-73
2023/06/30 08:48:30;;;;;;;5.50;2.80;;;;;;;;;;10625183;27;20034;-72
2023/06/30 08:53:30;;;;;;;11.07;2.33;;;;;;;;;;10627696;27;20031;-73
2023/06/30 08:58:31;;;;;;;5.07;2.20;;;;;;;;;;10626762;27;20023;-72
2023/06/30 09:03:31;;;;;;;5.15;2.45;;;;;;;;;;10621016;27;20365;-73
2023/06/30 09:08:41;;;;;;;3.50;2.00;;;;;;;;;;10627438;27;20089;-73
2023/06/30 09:13:42;;;;;;;5.93;1.42;;;;;;;;;;10627923;27;20019;-73
2023/06/30 09:18:42;;;;;;;4.63;1.85;;;;;;;;;;10603274;27;20023;-73
2023/06/30 09:23:43;;;;;;;6.43;1.52;;;;;;;;;;10583884;28;20036;-73
2023/06/30 09:28:43;;;;;;;5.17;1.90;;;;;;;;;;10590985;27;20034;-73
2023/06/30 09:33:47;;;;;;;2.67;1.25;;;;;;;;;;10626738;27;20334;-73
2023/06/30 09:38:55;;;;;;;3.95;1.70;;;;;;;;;;10600960;27;20015;-73
2023/06/30 09:43:56;;;;;;;6.28;1.75;;;;;;;;;;10614488;27;20106;-73
2023/06/30 09:48:58;;;;;;;7.95;1.90;;;;;;;;;;10608082;27;20316;-73
2023/06/30 09:53:58;;;;;;;4.28;1.75;;;;;;;;;;10607748;27;20019;-73
2023/06/30 09:58:58;;;;;;;4.47;1.85;;;;;;;;;;10607365;27;20022;-73
2023/06/30 10:03:59;;;;;;;7.17;1.90;;;;;;;;;;10626177;27;20221;-73
2023/06/30 10:09:01;;;;;;;2.85;2.33;;;;;;;;;;10606323;27;20333;-73
2023/06/30 10:14:02;;;;;;;4.72;2.03;;;;;;;;;;10615625;27;20032;-73
2023/06/30 10:19:03;;;;;;;2.72;1.90;;;;;;;;;;10615759;27;20362;-73
2023/06/30 10:24:04;;;;;;;5.70;1.90;;;;;;;;;;10624693;27;20022;-73
2023/06/30 10:29:04;;;;;;;5.50;2.00;;;;;;;;;;10617732;27;20020;-73
2023/06/30 10:34:05;;;;;;;4.83;1.63;;;;;;;;;;10570412;27;20023;-73
2023/06/30 10:39:06;;;;;;;2.55;1.70;;;;;;;;;;10623543;27;20042;-73
2023/06/30 10:44:07;;;;;;;6.93;2.30;;;;;;;;;;10623893;27;20085;-72
2023/06/30 10:49:08;;;;;;;3.22;1.85;;;;;;;;;;10624542;27;20284;-72
2023/06/30 10:54:09;;;;;;;5.15;1.98;;;;;;;;;;10623748;27;20019;-72
2023/06/30 10:59:14;;;;;;;6.60;1.67;;;;;;;;;;10599747;27;20321;-73
2023/06/30 11:04:15;;;;;;;5.22;2.13;;;;;;;;;;10581091;28;20309;-73
2023/06/30 11:09:15;;;;;;;6.28;2.88;;;;;;;;;;10580918;28;20069;-73
2023/06/30 11:14:29;;;;;;;6.28;2.60;;;;;;;;;;10580705;28;20035;-73
2023/06/30 11:19:29;;;;;;;6.13;3.47;;;;;;;;;;10580496;28;20045;-72
2023/06/30 11:24:29;;;;;;;7.18;4.10;;;;;;;;;;10588709;28;20011;-73
2023/06/30 11:29:30;;;;;;;5.65;3.72;;;;;;;;;;10622205;28;20102;-73
2023/06/30 11:34:30;;;;;;;13.23;3.70;;;;;;;;;;10623778;28;20390;-73
2023/06/30 11:39:30;;;;;;;9.10;3.78;;;;;;;;;;10616931;28;20174;-73
2023/06/30 11:44:35;;;;;;;8.85;4.20;;;;;;;;;;10538446;28;20297;-73
2023/06/30 11:49:36;;;;;;;6.28;4.07;;;;;;;;;;10543540;28;20540;-73
2023/06/30 11:54:37;;;;;;;6.30;3.78;;;;;;;;;;10615584;27;20035;-74
2023/06/30 11:59:37;;;;;;;14.93;4.25;;;;;;;;;;10608416;27;20214;-73
2023/06/30 12:04:37;;;;;;;14.70;5.67;;;;;;;;;;10546084;28;20024;-73
2023/06/30 12:09:38;;;;;;;7.23;3.97;;;;;;;;;;10629527;27;20301;-73
2023/06/30 12:14:41;;;;;;;11.80;4.40;;;;;;;;;;10629853;27;20567;-74
2023/06/30 12:19:44;;;;;;;5.75;3.95;;;;;;;;;;10629381;27;20629;-73
2023/06/30 12:24:52;;;;;;;9.35;4.70;;;;;;;;;;10630339;27;20234;-73
2023/06/30 12:29:54;;;;;;;5.00;4.20;;;;;;;;;;10610868;27;20032;-73
2023/06/30 12:35:01;;;;;;;9.05;5.03;;;;;;;;;;10624762;27;20015;-74
2023/06/30 12:40:02;;;;;;;10.70;7.37;;;;;;;;;;10599300;27;20015;-74
2023/06/30 12:45:03;;;;;;;4.80;4.30;;;;;;;;;;10618899;27;20020;-73
2023/06/30 12:50:04;;;;;;;6.93;5.05;;;;;;;;;;10605824;27;20015;-74
2023/06/30 12:55:04;;;;;;;10.38;5.15;;;;;;;;;;10609974;27;20301;-74
2023/06/30 13:00:11;;;;;;;14.68;5.60;;;;;;;;;;10627322;27;20014;-73
2023/06/30 13:05:11;;;;;;;12.05;5.60;;;;;;;;;;10626573;27;20297;-74
2023/06/30 13:10:13;;;;;;;7.33;5.40;;;;;;;;;;10626802;27;20030;-73
2023/06/30 13:15:13;;;;;;;10.10;5.15;;;;;;;;;;10608456;27;20007;-73
2023/06/30 13:20:14;;;;;;;7.75;5.15;;;;;;;;;;10627447;27;20023;-74
2023/06/30 13:25:16;;;;;;;11.57;4.72;;;;;;;;;;10608835;27;20076;-73
2023/06/30 13:30:17;;;;;;;10.32;4.03;;;;;;;;;;10626438;27;20035;-73
2023/06/30 13:35:17;;;;;;;4.90;4.40;;;;;;;;;;10626395;27;20102;-73
2023/06/30 13:40:17;;;;;;;7.50;4.03;;;;;;;;;;10626001;27;20011;-72
2023/06/30 13:45:19;;;;;;;8.10;2.95;;;;;;;;;;10625085;27;20297;-71
2023/06/30 13:50:20;;;;;;;2.70;1.27;;;;;;;;;;10619615;27;20417;-73
2023/06/30 13:55:20;;;;;;;2.45;1.60;;;;;;;;;;10540338;28;20012;-74
2023/06/30 14:00:21;;;;;;;2.67;1.33;;;;;;;;;;10562658;28;20022;-73
2023/06/30 14:05:21;;;;;;;5.03;3.72;;;;;;;;;;10604165;27;20114;-73
2023/06/30 14:10:22;;;;;;;3.93;1.60;;;;;;;;;;10621592;27;20040;-74
2023/06/30 14:15:22;;;;;;;3.45;1.38;;;;;;;;;;10621873;27;20046;-74
2023/06/30 14:20:23;;;;;;;4.23;1.47;;;;;;;;;;10579233;27;20294;-73
2023/06/30 14:25:24;;;;;;;1.83;1.52;;;;;;;;;;10538768;28;20206;-73
2023/06/30 14:30:28;;;;;;;2.05;1.63;;;;;;;;;;10538406;28;20385;-74
2023/06/30 14:35:29;;;;;;;9.13;1.90;;;;;;;;;;10540086;28;20020;-74
2023/06/30 14:40:29;;;;;;;3.65;2.00;;;;;;;;;;10607289;27;20243;-73
2023/06/30 14:45:30;;;;;;;4.10;2.10;;;;;;;;;;10590924;27;20076;-72
2023/06/30 14:50:30;;;;;;;6.20;3.00;;;;;;;;;;10577420;27;20278;-73
2023/06/30 14:55:30;;;;;;;5.35;3.15;;;;;;;;;;10623848;27;20191;-73
2023/06/30 15:00:31;;;;;;;3.25;2.13;;;;;;;;;;10623579;27;20027;-73
2023/06/30 15:05:32;;;;;;;7.88;2.90;;;;;;;;;;10623701;27;20091;-73
2023/06/30 15:10:32;;;;;;;5.57;2.75;;;;;;;;;;10623336;27;20015;-73
2023/06/30 15:15:32;;;;;;;6.53;2.73;;;;;;;;;;10623136;27;20026;-72
2023/06/30 15:20:32;;;;;;;6.25;2.47;;;;;;;;;;10623005;27;20022;-74
2023/06/30 15:25:33;;;;;;;5.72;2.47;;;;;;;;;;10622403;27;20355;-72
2023/06/30 15:30:34;;;;;;;4.13;2.10;;;;;;;;;;10622516;28;20039;-73
2023/06/30 15:35:35;;;;;;;6.15;1.70;;;;;;;;;;10621966;28;20029;-73
2023/06/30 15:40:36;;;;;;;3.58;1.73;;;;;;;;;;10608858;28;20028;-73
2023/06/30 15:45:37;;;;;;;3.05;1.50;;;;;;;;;;10617365;28;20244;-72
2023/06/30 15:50:37;;;;;;;3.23;1.40;;;;;;;;;;10622685;28;20054;-73
2023/06/30 15:55:37;;;;;;;2.07;1.50;;;;;;;;;;10567074;28;20394;-73
2023/06/30 16:00:38;;;;;;;3.00;1.50;;;;;;;;;;10594661;28;20079;-73
2023/06/30 16:05:38;;;;;;;1.80;1.43;;;;;;;;;;10622425;28;20039;-74
2023/06/30 16:10:38;;;;;;;2.75;1.77;;;;;;;;;;10551839;28;20305;-74
2023/06/30 16:15:38;;;;;;;2.20;1.85;;;;;;;;;;10537489;28;20020;-73
2023/06/30 16:20:39;;;;;;;1.55;1.45;;;;;;;;;;10541500;28;20038;-74
2023/06/30 16:25:39;;;;;;;2.28;1.70;;;;;;;;;;10580174;28;20031;-74
2023/06/30 16:30:42;;;;;;;1.57;1.47;;;;;;;;;;10579605;28;20040;-74
2023/06/30 16:35:42;;;;;;;1.90;1.80;;;;;;;;;;10583130;28;20201;-73
2023/06/30 16:40:43;;;;;;;1.80;1.40;;;;;;;;;;10613611;27;20065;-74
2023/06/30 16:45:43;;;;;;;6.37;1.87;;;;;;;;;;10628616;27;20030;-73
2023/06/30 16:50:43;;;;;;;2.00;1.57;;;;;;;;;;10598782;27;20339;-73
2023/06/30 16:55:44;;;;;;;1.80;1.45;;;;;;;;;;10567906;28;20016;-73
2023/06/30 17:00:44;;;;;;;7.60;2.15;;;;;;;;;;10566464;28;20024;-73
2023/06/30 17:05:44;;;;;;;5.65;1.80;;;;;;;;;;10586189;28;20015;-73
2023/06/30 17:10:44;;;;;;;2.53;2.03;;;;;;;;;;10585890;28;20047;-73
2023/06/30 17:15:45;;;;;;;4.43;2.15;;;;;;;;;;10585316;28;20198;-73
2023/06/30 17:20:45;;;;;;;2.53;1.83;;;;;;;;;;10585238;28;20049;-73
2023/06/30 17:25:45;;;;;;;4.40;2.38;;;;;;;;;;10567586;28;20015;-73
2023/06/30 17:30:46;;;;;;;4.70;2.23;;;;;;;;;;10584409;28;20035;-72
2023/06/30 17:35:46;;;;;;;3.80;2.53;;;;;;;;;;10584566;28;20016;-72
2023/06/30 17:40:47;;;;;;;3.53;2.20;;;;;;;;;;10584777;28;20057;-73
2023/06/30 17:45:48;;;;;;;6.97;2.97;;;;;;;;;;10584018;28;20011;-73
2023/06/30 17:50:48;;;;;;;7.95;2.20;;;;;;;;;;10584069;28;20028;-73
2023/06/30 17:55:52;;;;;;;3.63;2.20;;;;;;;;;;10584048;28;20031;-73
2023/06/30 18:00:52;;;;;;;6.15;2.60;;;;;;;;;;10583741;28;20251;-73
2023/06/30 18:05:52;;;;;;;10.65;3.25;;;;;;;;;;10583983;28;20078;-72
2023/06/30 18:10:53;;;;;;;9.40;2.97;;;;;;;;;;10583146;28;20064;-73
2023/06/30 18:15:53;;;;;;;3.67;3.20;;;;;;;;;;10583348;28;20073;-73
2023/06/30 18:20:53;;;;;;;8.70;3.97;;;;;;;;;;10583038;28;20508;-73
2023/06/30 18:25:54;;;;;;;8.20;3.47;;;;;;;;;;10564745;28;20015;-73
2023/06/30 18:30:54;;;;;;;7.97;4.97;;;;;;;;;;10585221;27;20036;-74
2023/06/30 18:35:55;;;;;;;9.32;4.20;;;;;;;;;;10624363;27;20276;-74
2023/06/30 18:40:55;;;;;;;13.30;5.00;;;;;;;;;;10624640;27;20029;-73
2023/06/30 18:45:55;;;;;;;5.78;4.30;;;;;;;;;;10623982;27;20275;-73
2023/06/30 18:50:56;;;;;;;10.07;4.53;;;;;;;;;;10605040;27;20041;-74
2023/06/30 18:55:56;;;;;;;6.27;4.07;;;;;;;;;;10623468;27;20022;-73
2023/06/30 19:00:56;;;;;;;9.98;4.15;;;;;;;;;;10623202;27;20300;-74
2023/06/30 19:05:59;;;;;;;8.77;3.87;;;;;;;;;;10624140;27;20060;-74
2023/06/30 19:10:59;;;;;;;5.40;3.90;;;;;;;;;;10615462;27;20023;-73
2023/06/30 19:16:00;;;;;;;5.70;4.07;;;;;;;;;;10608350;27;20023;-73
2023/06/30 19:21:00;;;;;;;6.07;3.58;;;;;;;;;;10623419;27;20050;-74
2023/06/30 19:26:00;;;;;;;6.05;4.43;;;;;;;;;;10622932;28;20023;-74
2023/06/30 19:31:01;;;;;;;4.47;3.58;;;;;;;;;;10613544;28;20032;-74
2023/06/30 19:36:01;;;;;;;9.15;3.65;;;;;;;;;;10538178;28;20020;-73
2023/06/30 19:41:01;;;;;;;8.00;4.45;;;;;;;;;;10612053;28;20042;-74
2023/06/30 19:46:02;;;;;;;7.63;4.83;;;;;;;;;;10622481;28;20368;-74
2023/06/30 19:51:02;;;;;;;5.43;4.13;;;;;;;;;;10622218;28;20031;-74
2023/06/30 19:56:02;;;;;;;8.40;3.90;;;;;;;;;;10623019;28;20221;-74
2023/06/30 20:01:03;;;;;;;5.77;4.40;;;;;;;;;;10612798;28;20015;-73
2023/06/30 20:06:03;;;;;;;10.30;4.43;;;;;;;;;;10619259;28;20302;-74
2023/06/30 20:11:03;;;;;;;6.60;3.97;;;;;;;;;;10628081;27;20019;-73
2023/06/30 20:16:04;;;;;;;8.75;4.43;;;;;;;;;;10630531;27;20213;-73
2023/06/30 20:21:04;;;;;;;14.47;4.93;;;;;;;;;;10612096;27;20027;-74
2023/06/30 20:26:04;;;;;;;11.48;5.18;;;;;;;;;;10610700;27;20266;-72
2023/06/30 20:31:04;;;;;;;8.32;5.70;;;;;;;;;;10556680;28;20062;-73
2023/06/30 20:36:06;;;;;;;10.70;5.45;;;;;;;;;;10598969;27;20011;-73
2023/06/30 20:41:06;;;;;;;8.70;4.50;;;;;;;;;;10611427;27;20054;-75
2023/06/30 20:46:06;;;;;;;5.65;4.95;;;;;;;;;;10602692;27;20273;-73
2023/06/30 20:51:07;;;;;;;10.15;5.25;;;;;;;;;;10628604;27;20213;-74
2023/06/30 20:56:07;;;;;;;8.23;4.63;;;;;;;;;;10629282;27;20046;-73
2023/06/30 21:01:07;;;;;;;9.40;5.30;;;;;;;;;;10628544;27;20455;-72
2023/06/30 21:06:08;;;;;;;13.77;5.53;;;;;;;;;;10591897;27;20324;-73
2023/06/30 21:11:08;;;;;;;11.35;5.55;;;;;;;;;;10546030;28;20038;-73
2023/06/30 21:16:09;;;;;;;10.95;5.90;;;;;;;;;;10586355;28;20229;-72
2023/06/30 21:21:09;;;;;;;10.80;5.53;;;;;;;;;;10567918;28;20039;-73
2023/06/30 21:26:10;;;;;;;11.60;5.80;;;;;;;;;;10543118;28;20303;-74
2023/06/30 21:31:10;;;;;;;11.00;5.97;;;;;;;;;;10623076;27;20043;-74
2023/06/30 21:36:10;;;;;;;7.32;6.18;;;;;;;;;;10628209;27;20112;-73
2023/06/30 21:41:11;;;;;;;10.40;5.78;;;;;;;;;;10573623;27;20217;-73
2023/06/30 21:46:15;;;;;;;12.60;5.75;;;;;;;;;;10581718;27;20068;-73
2023/06/30 21:51:15;;;;;;;9.02;5.55;;;;;;;;;;10626669;27;20237;-73
2023/06/30 21:56:16;;;;;;;8.10;6.10;;;;;;;;;;10608238;27;20086;-75
2023/06/30 22:01:16;;;;;;;12.00;6.45;;;;;;;;;;10626291;27;20015;-73
2023/06/30 22:06:16;;;;;;;8.40;5.03;;;;;;;;;;10554852;27;20507;-73
2023/06/30 22:11:16;;;;;;;9.30;5.15;;;;;;;;;;10582457;27;20074;-73
2023/06/30 22:16:17;;;;;;;7.78;4.85;;;;;;;;;;10625971;27;20328;-74
2023/06/30 22:21:17;;;;;;;7.35;4.85;;;;;;;;;;10625329;27;20099;-74
2023/06/30 22:26:17;;;;;;;10.50;4.82;;;;;;;;;;10540716;28;20028;-73
2023/06/30 22:31:17;;;;;;;8.77;5.15;;;;;;;;;;10610672;27;20031;-73
2023/06/30 22:36:18;;;;;;;6.72;5.32;;;;;;;;;;10624266;27;20015;-74
2023/06/30 22:41:18;;;;;;;8.05;5.10;;;;;;;;;;10624071;27;20396;-74
2023/06/30 22:46:18;;;;;;;8.75;5.00;;;;;;;;;;10623822;27;20060;-73
2023/06/30 22:51:22;;;;;;;9.70;5.20;;;;;;;;;;10623519;27;20041;-74
2023/06/30 22:56:22;;;;;;;8.98;6.47;;;;;;;;;;10623257;27;20027;-74
2023/06/30 23:01:23;;;;;;;7.43;5.68;;;;;;;;;;10609707;27;20209;-74
2023/06/30 23:06:23;;;;;;;10.52;5.32;;;;;;;;;;10606836;27;20011;-74
2023/06/30 23:11:24;;;;;;;13.00;5.10;;;;;;;;;;10623698;27;20051;-73
2023/06/30 23:16:25;;;;;;;6.90;5.10;;;;;;;;;;10624309;27;20011;-74
2023/06/30 23:21:27;;;;;;;8.18;4.85;;;;;;;;;;10623664;27;20022;-74
2023/06/30 23:26:27;;;;;;;10.50;5.30;;;;;;;;;;10622800;28;20032;-73
2023/06/30 23:31:33;;;;;;;6.45;5.00;;;;;;;;;;10623136;28;20031;-74
2023/06/30 23:36:33;;;;;;;8.43;5.40;;;;;;;;;;10623683;28;20035;-74
2023/06/30 23:41:34;;;;;;;9.10;5.60;;;;;;;;;;10622782;28;20054;-74
2023/06/30 23:46:34;;;;;;;7.95;4.68;;;;;;;;;;10630816;27;20329;-73
2023/06/30 23:51:34;;;;;;;9.32;5.80;;;;;;;;;;10631309;27;20027;-74
2023/06/30 23:56:35;;;;;;;9.43;6.37;;;;;;;;;;10631338;27;20026;-73
